Time;durP1;ratioP1;P1;durP2;ratioP2;P2;SDS_P1;SDS_P2;PMS_P1;PMS_P2;Temp;Humidity;BMP_temperature;BMP_pressure;BME280_temperature;BME280_humidity;BME280_pressure;Samples;Min_cycle;Max_cycle;Signal;HPM_P1;HPM_P2
2023/08/23 00:00:31;;;;;;;17.03;10.27;;;14.80;96.50;;;;;;5020002;28;20049;-70
2023/08/23 00:02:57;;;;;;;14.70;10.10;;;14.80;96.50;;;;;;5020146;28;20511;-70
2023/08/23 00:05:23;;;;;;;20.23;10.27;;;14.70;96.50;;;;;;5021374;28;20053;-70
2023/08/23 00:07:48;;;;;;;13.33;8.67;;;14.70;96.60;;;;;;5020565;28;20042;-70
2023/08/23 00:10:14;;;;;;;15.47;9.73;;;14.70;96.60;;;;;;5004238;28;20116;-70
2023/08/23 00:12:40;;;;;;;17.10;9.17;;;14.70;96.90;;;;;;5027920;28;20088;-70
2023/08/23 00:15:07;;;;;;;12.07;8.80;;;14.70;96.70;;;;;;5024472;28;20033;-70
2023/08/23 00:17:32;;;;;;;14.00;9.47;;;14.70;96.70;;;;;;5025806;28;20046;-70
2023/08/23 00:19:58;;;;;;;16.30;9.83;;;14.70;96.70;;;;;;5029249;28;20295;-70
2023/08/23 00:22:24;;;;;;;14.30;9.27;;;14.70;96.70;;;;;;5008139;28;20463;-70
2023/08/23 00:24:49;;;;;;;12.97;9.27;;;14.70;96.70;;;;;;5026351;28;20037;-70
2023/08/23 00:27:15;;;;;;;12.93;9.00;;;14.70;96.80;;;;;;5025594;28;20044;-70
2023/08/23 00:29:41;;;;;;;15.93;9.10;;;14.70;96.80;;;;;;5027235;28;20041;-70
2023/08/23 00:32:06;;;;;;;13.40;9.03;;;14.70;96.80;;;;;;5012454;28;20029;-71
2023/08/23 00:34:32;;;;;;;14.50;8.67;;;14.70;96.70;;;;;;5010220;28;20080;-71
2023/08/23 00:36:58;;;;;;;12.83;8.27;;;14.70;96.80;;;;;;5025005;28;20386;-71
2023/08/23 00:39:24;;;;;;;11.83;7.53;;;14.70;96.80;;;;;;5029107;28;20583;-71
2023/08/23 00:41:49;;;;;;;14.50;8.00;;;14.70;96.80;;;;;;5026038;28;20103;-71
2023/08/23 00:44:15;;;;;;;14.90;8.73;;;14.70;96.80;;;;;;5026019;28;20848;-70
2023/08/23 00:46:41;;;;;;;15.20;8.70;;;14.60;96.70;;;;;;5023215;28;20121;-70
2023/08/23 00:49:07;;;;;;;13.97;8.90;;;14.60;96.90;;;;;;5026824;28;20547;-70
2023/08/23 00:51:34;;;;;;;15.43;8.77;;;14.60;96.90;;;;;;5022949;28;20107;-70
2023/08/23 00:54:00;;;;;;;12.70;8.37;;;14.60;96.80;;;;;;5010561;28;20760;-70
2023/08/23 00:56:27;;;;;;;11.13;7.87;;;14.60;96.90;;;;;;5026558;28;20688;-70
2023/08/23 00:58:53;;;;;;;12.20;8.67;;;14.60;96.90;;;;;;5032208;28;20637;-70
2023/08/23 01:01:18;;;;;;;13.00;8.77;;;14.60;96.90;;;;;;5022850;28;20304;-70
2023/08/23 01:03:44;;;;;;;10.13;7.63;;;14.60;97.00;;;;;;5030174;28;20060;-70
2023/08/23 01:06:33;;;;;;;10.37;7.87;;;14.60;97.00;;;;;;5028950;28;20033;-70
2023/08/23 01:09:28;;;;;;;12.70;9.53;;;14.50;96.90;;;;;;5032285;28;20045;-70
2023/08/23 01:12:11;;;;;;;14.70;9.05;;;14.60;97.20;;;;;;5028193;28;20287;-70
2023/08/23 01:14:51;;;;;;;14.93;8.93;;;14.60;97.30;;;;;;5032161;28;20048;-70
2023/08/23 01:17:19;;;;;;;15.40;9.47;;;14.60;97.10;;;;;;5030843;28;20651;-70
2023/08/23 01:19:47;;;;;;;12.07;9.17;;;14.60;97.20;;;;;;5033638;28;20291;-70
2023/08/23 01:22:20;;;;;;;14.87;9.90;;;14.60;97.30;;;;;;5028994;28;20783;-70
2023/08/23 01:24:49;;;;;;;14.83;10.67;;;14.60;97.20;;;;;;5032478;28;20293;-70
2023/08/23 01:27:18;;;;;;;16.73;11.50;;;14.60;97.30;;;;;;5029812;28;20376;-70
2023/08/23 01:29:45;;;;;;;19.43;11.37;;;14.60;97.60;;;;;;5031189;28;20291;-70
2023/08/23 01:32:55;;;;;;;17.30;11.73;;;14.60;97.60;;;;;;5031466;28;20311;-70
2023/08/23 01:35:40;;;;;;;15.60;11.87;;;14.70;97.60;;;;;;4988458;28;20345;-70
2023/08/23 01:38:06;;;;;;;16.70;12.02;;;14.70;97.80;;;;;;5022847;28;20418;-70
2023/08/23 01:40:33;;;;;;;12.70;9.60;;;14.70;98.00;;;;;;5027949;28;20044;-70
2023/08/23 01:42:59;;;;;;;13.70;10.10;;;14.70;98.00;;;;;;5026583;28;20287;-70
2023/08/23 01:45:25;;;;;;;17.00;10.80;;;14.70;97.90;;;;;;5032089;28;20798;-70
2023/08/23 01:47:50;;;;;;;12.50;9.03;;;14.70;97.90;;;;;;5014468;28;20306;-71
2023/08/23 01:50:16;;;;;;;11.97;8.80;;;14.60;97.90;;;;;;5032152;28;20045;-70
2023/08/23 01:52:42;;;;;;;12.37;9.03;;;14.60;98.00;;;;;;5032338;28;20037;-70
2023/08/23 01:55:08;;;;;;;12.60;9.03;;;14.60;98.00;;;;;;5030970;28;20130;-70
2023/08/23 01:57:33;;;;;;;11.07;9.10;;;14.50;98.00;;;;;;5025557;28;20041;-70
2023/08/23 01:59:59;;;;;;;13.93;9.97;;;14.50;98.00;;;;;;5027994;28;20044;-70
2023/08/23 02:02:25;;;;;;;15.27;10.23;;;14.50;97.90;;;;;;5028017;28;20564;-70
2023/08/23 02:04:50;;;;;;;16.00;11.47;;;14.50;98.10;;;;;;5015881;28;20053;-71
2023/08/23 02:07:16;;;;;;;15.57;11.03;;;14.50;98.10;;;;;;5031466;28;20053;-71
2023/08/23 02:09:42;;;;;;;16.03;11.80;;;14.50;98.10;;;;;;5032722;28;20068;-71
2023/08/23 02:12:08;;;;;;;15.77;11.97;;;14.50;98.20;;;;;;5025736;28;20048;-71
2023/08/23 02:14:33;;;;;;;18.87;11.70;;;14.50;98.40;;;;;;5029584;28;20497;-71
2023/08/23 02:16:59;;;;;;;16.63;11.47;;;14.50;98.40;;;;;;5031493;28;20128;-71
2023/08/23 02:19:25;;;;;;;19.00;12.27;;;14.60;98.50;;;;;;5024905;28;20044;-71
2023/08/23 02:21:51;;;;;;;18.27;12.47;;;14.60;98.50;;;;;;5027181;28;20045;-71
2023/08/23 02:24:16;;;;;;;18.43;13.30;;;14.60;98.60;;;;;;5027184;28;20060;-71
2023/08/23 02:26:42;;;;;;;18.43;13.53;;;14.70;98.90;;;;;;5027917;28;20779;-71
2023/08/23 02:29:09;;;;;;;19.13;13.27;;;14.80;99.00;;;;;;5031052;28;20061;-71
2023/08/23 02:31:35;;;;;;;17.90;13.33;;;14.80;98.90;;;;;;5031188;28;20291;-71
2023/08/23 02:34:00;;;;;;;20.53;13.30;;;14.90;98.90;;;;;;5028429;28;20041;-71
2023/08/23 02:36:26;;;;;;;16.50;13.07;;;14.90;99.00;;;;;;5024406;28;20037;-71
2023/08/23 02:38:53;;;;;;;20.30;13.70;;;14.90;99.00;;;;;;5031089;28;20036;-70
2023/08/23 02:41:19;;;;;;;18.67;12.73;;;15.00;99.30;;;;;;5015350;28;20029;-70
2023/08/23 02:43:44;;;;;;;15.97;11.93;;;15.00;99.30;;;;;;5023794;28;20869;-70
2023/08/23 02:46:10;;;;;;;15.93;12.13;;;15.10;99.30;;;;;;5028054;28;20064;-71
2023/08/23 02:48:36;;;;;;;18.90;13.33;;;15.10;99.30;;;;;;5027535;28;20099;-71
2023/08/23 02:51:02;;;;;;;19.10;13.37;;;15.20;99.10;;;;;;5028006;28;20075;-71
2023/08/23 02:53:27;;;;;;;21.10;12.90;;;15.30;99.30;;;;;;5014040;28;20041;-71
2023/08/23 02:55:53;;;;;;;19.77;13.67;;;15.30;99.40;;;;;;5027790;28;20038;-71
2023/08/23 02:58:19;;;;;;;22.77;15.23;;;15.30;99.50;;;;;;5027046;28;20524;-71
2023/08/23 03:00:44;;;;;;;22.43;14.10;;;15.40;99.60;;;;;;5030769;28;20086;-71
2023/08/23 03:03:10;;;;;;;19.83;14.10;;;15.40;99.60;;;;;;5029188;28;20124;-71
2023/08/23 03:05:36;;;;;;;20.03;13.47;;;15.40;99.50;;;;;;5027715;28;20049;-71
2023/08/23 03:08:01;;;;;;;19.97;14.27;;;15.40;99.60;;;;;;5030745;28;20667;-71
2023/08/23 03:10:27;;;;;;;19.77;13.40;;;15.40;99.60;;;;;;5029641;28;20034;-71
2023/08/23 03:12:53;;;;;;;17.63;12.83;;;15.50;99.90;;;;;;5022511;28;20559;-71
2023/08/23 03:15:19;;;;;;;18.33;13.50;;;15.40;99.90;;;;;;5029702;28;20117;-71
2023/08/23 03:17:45;;;;;;;17.93;12.87;;;15.40;99.90;;;;;;5030328;28;20049;-71
2023/08/23 03:20:11;;;;;;;16.63;12.23;;;15.40;99.90;;;;;;5026530;28;20291;-71
2023/08/23 03:22:36;;;;;;;19.63;12.37;;;15.50;99.90;;;;;;5007543;28;20051;-71
2023/08/23 03:25:02;;;;;;;16.57;11.47;;;15.50;99.90;;;;;;5014131;28;20044;-71
2023/08/23 03:27:28;;;;;;;14.70;10.93;;;15.50;99.90;;;;;;5025143;28;20059;-71
2023/08/23 03:29:54;;;;;;;16.67;11.73;;;15.50;99.90;;;;;;5026423;28;20118;-71
2023/08/23 03:32:19;;;;;;;14.10;11.60;;;15.50;99.90;;;;;;5013676;28;20048;-71
2023/08/23 03:34:46;;;;;;;18.20;11.43;;;15.50;99.90;;;;;;5028108;28;20040;-71
2023/08/23 03:37:11;;;;;;;12.93;10.67;;;15.40;99.90;;;;;;5027268;28;20457;-71
2023/08/23 03:39:40;;;;;;;14.53;11.30;;;15.40;99.90;;;;;;5028146;28;20342;-71
2023/08/23 03:42:05;;;;;;;13.80;11.33;;;15.40;99.90;;;;;;5015054;28;20087;-71
2023/08/23 03:44:31;;;;;;;16.27;11.40;;;15.30;99.90;;;;;;5023986;28;20295;-71
2023/08/23 03:46:57;;;;;;;14.10;10.37;;;15.30;99.90;;;;;;5024123;28;20033;-71
2023/08/23 03:49:22;;;;;;;15.00;11.17;;;15.30;99.90;;;;;;5026415;28;20037;-71
2023/08/23 03:51:48;;;;;;;12.30;10.13;;;15.30;99.90;;;;;;5025878;28;20095;-71
2023/08/23 03:54:15;;;;;;;13.40;10.10;;;15.20;99.90;;;;;;5021736;28;20060;-71
2023/08/23 03:56:40;;;;;;;14.43;11.30;;;15.20;99.90;;;;;;5028512;28;20035;-71
2023/08/23 03:59:06;;;;;;;13.83;10.63;;;15.20;99.90;;;;;;5024864;28;20301;-71
2023/08/23 04:01:31;;;;;;;14.40;10.93;;;15.20;99.90;;;;;;5030360;28;20033;-71
2023/08/23 04:03:57;;;;;;;14.93;10.70;;;15.20;99.90;;;;;;5009198;28;20041;-71
2023/08/23 04:06:23;;;;;;;14.57;11.17;;;15.20;99.90;;;;;;5025667;28;20401;-71
2023/08/23 04:08:48;;;;;;;16.07;11.40;;;15.20;99.90;;;;;;5021562;28;20041;-71
2023/08/23 04:11:14;;;;;;;16.67;11.23;;;15.20;99.90;;;;;;5027296;28;20099;-71
2023/08/23 04:13:40;;;;;;;16.03;11.33;;;15.30;99.90;;;;;;5026566;28;20033;-71
2023/08/23 04:16:05;;;;;;;14.07;9.93;;;15.30;99.90;;;;;;5026849;28;20049;-71
2023/08/23 04:18:31;;;;;;;17.17;11.13;;;15.30;99.90;;;;;;5029651;28;20136;-71
2023/08/23 04:21:01;;;;;;;16.07;10.37;;;15.30;99.90;;;;;;5029808;28;20060;-71
2023/08/23 04:23:27;;;;;;;15.57;10.43;;;15.30;99.90;;;;;;5029958;28;20056;-71
2023/08/23 04:25:53;;;;;;;16.87;11.90;;;15.30;99.90;;;;;;5023764;28;20381;-71
2023/08/23 04:28:19;;;;;;;16.80;11.63;;;15.30;99.90;;;;;;5005424;28;20427;-71
2023/08/23 04:30:44;;;;;;;18.87;11.63;;;15.20;99.90;;;;;;5011981;28;20409;-71
2023/08/23 04:33:10;;;;;;;18.13;12.33;;;15.20;99.90;;;;;;5031057;28;20037;-71
2023/08/23 04:35:37;;;;;;;16.33;11.23;;;15.20;99.90;;;;;;5030502;28;20039;-71
2023/08/23 04:38:04;;;;;;;17.93;12.67;;;15.20;99.90;;;;;;5032555;28;20695;-71
2023/08/23 04:40:30;;;;;;;16.80;12.37;;;15.20;99.90;;;;;;5026893;28;20314;-71
2023/08/23 04:42:55;;;;;;;15.87;10.97;;;15.10;99.90;;;;;;5032992;28;20296;-71
2023/08/23 04:45:21;;;;;;;19.70;11.47;;;15.10;99.90;;;;;;5034313;28;20474;-71
2023/08/23 04:47:47;;;;;;;16.13;11.50;;;15.10;99.90;;;;;;5021597;28;20037;-71
2023/08/23 04:50:13;;;;;;;20.10;11.57;;;15.10;99.90;;;;;;5014380;28;20039;-71
2023/08/23 04:52:39;;;;;;;17.73;12.57;;;15.10;99.90;;;;;;5024181;28;20032;-71
2023/08/23 04:55:05;;;;;;;18.03;13.27;;;15.10;99.90;;;;;;5023488;28;20537;-71
2023/08/23 04:57:31;;;;;;;18.10;13.13;;;15.10;99.90;;;;;;5026336;28;21287;-71
2023/08/23 04:59:57;;;;;;;19.87;12.47;;;15.00;99.90;;;;;;5030408;28;20341;-71
2023/08/23 05:02:22;;;;;;;19.37;12.53;;;15.10;99.90;;;;;;5031089;28;20049;-71
2023/08/23 05:04:48;;;;;;;17.30;11.70;;;15.00;99.90;;;;;;5032116;28;20119;-71
2023/08/23 05:07:14;;;;;;;17.30;12.80;;;15.00;99.90;;;;;;5031609;28;20037;-71
2023/08/23 05:09:39;;;;;;;18.93;13.07;;;15.00;99.90;;;;;;5030803;28;20073;-71
2023/08/23 05:12:05;;;;;;;18.07;12.23;;;14.90;99.90;;;;;;5030072;28;20492;-71
2023/08/23 05:14:31;;;;;;;17.20;11.53;;;14.90;99.90;;;;;;5032323;28;20107;-71
2023/08/23 05:16:57;;;;;;;17.93;12.40;;;14.90;99.90;;;;;;5029558;28;20045;-71
2023/08/23 05:19:23;;;;;;;18.30;12.57;;;15.00;99.90;;;;;;5028430;28;20059;-71
2023/08/23 05:21:49;;;;;;;16.53;12.13;;;14.90;99.90;;;;;;5028134;28;20064;-71
2023/08/23 05:24:15;;;;;;;19.13;12.83;;;15.00;99.90;;;;;;5031336;28;20071;-71
2023/08/23 05:26:41;;;;;;;17.87;12.27;;;14.90;99.90;;;;;;5031579;28;20287;-71
2023/08/23 05:29:06;;;;;;;18.00;12.43;;;14.90;99.90;;;;;;5032714;28;20099;-71
2023/08/23 05:31:32;;;;;;;19.10;13.77;;;14.90;99.90;;;;;;5038219;28;20095;-71
2023/08/23 05:33:58;;;;;;;21.50;13.67;;;15.00;99.90;;;;;;5031477;28;20094;-71
2023/08/23 05:36:23;;;;;;;18.20;13.30;;;15.00;99.90;;;;;;5027986;28;20472;-71
2023/08/23 05:38:50;;;;;;;20.03;14.80;;;15.10;99.90;;;;;;5035737;28;20041;-71
2023/08/23 05:41:16;;;;;;;20.07;13.77;;;15.20;99.90;;;;;;5009845;28;20033;-71
2023/08/23 05:43:41;;;;;;;22.90;15.43;;;15.40;99.90;;;;;;5033559;28;20292;-71
2023/08/23 05:46:07;;;;;;;22.30;14.77;;;15.50;99.90;;;;;;5022852;28;20444;-71
2023/08/23 05:48:35;;;;;;;22.53;15.93;;;15.60;99.90;;;;;;5039175;28;20099;-71
2023/08/23 05:51:04;;;;;;;23.17;15.80;;;15.70;99.90;;;;;;5025635;28;20034;-71
2023/08/23 05:53:30;;;;;;;24.73;15.03;;;15.80;99.90;;;;;;5029448;28;20331;-71
2023/08/23 05:55:56;;;;;;;22.37;15.17;;;15.90;99.90;;;;;;5027749;28;20288;-71
2023/08/23 05:58:21;;;;;;;20.73;15.47;;;16.00;99.90;;;;;;5029373;28;20819;-71
2023/08/23 06:00:49;;;;;;;23.53;15.93;;;16.10;99.90;;;;;;5024689;28;20041;-71
2023/08/23 06:03:15;;;;;;;23.60;15.43;;;16.20;99.90;;;;;;5026021;28;20041;-71
2023/08/23 06:05:41;;;;;;;23.00;15.70;;;16.40;99.90;;;;;;5023419;28;20299;-71
2023/08/23 06:08:08;;;;;;;22.47;16.07;;;16.60;99.90;;;;;;5022847;28;20378;-71
2023/08/23 06:10:34;;;;;;;25.87;15.53;;;16.90;99.90;;;;;;5028105;28;20876;-71
2023/08/23 06:13:00;;;;;;;24.50;16.80;;;17.10;99.90;;;;;;5023391;28;20357;-71
2023/08/23 06:15:26;;;;;;;25.40;16.50;;;17.30;99.90;;;;;;5038873;28;20033;-71
2023/08/23 06:17:53;;;;;;;21.63;15.10;;;17.50;99.90;;;;;;5007576;28;20033;-71
2023/08/23 06:20:19;;;;;;;24.00;16.57;;;17.60;99.90;;;;;;5032488;28;20292;-71
2023/08/23 06:22:45;;;;;;;20.90;14.70;;;17.70;99.90;;;;;;5027534;28;20322;-71
2023/08/23 06:25:11;;;;;;;22.53;15.00;;;17.90;99.70;;;;;;5033786;28;20331;-71
2023/08/23 06:27:37;;;;;;;22.30;14.40;;;18.00;99.50;;;;;;5032032;28;20044;-71
2023/08/23 06:30:06;;;;;;;19.10;13.70;;;18.00;99.30;;;;;;5033972;28;20097;-72
2023/08/23 06:32:32;;;;;;;21.10;13.73;;;18.00;99.20;;;;;;5043641;28;20294;-71
2023/08/23 06:34:58;;;;;;;23.73;15.23;;;18.10;99.20;;;;;;5027421;28;20462;-71
2023/08/23 06:37:23;;;;;;;19.10;14.20;;;18.10;99.20;;;;;;5025287;28;20095;-71
2023/08/23 06:39:49;;;;;;;18.77;13.77;;;18.20;99.20;;;;;;5022044;28;20052;-71
2023/08/23 06:42:17;;;;;;;17.93;13.03;;;18.30;99.20;;;;;;5020949;28;20084;-71
2023/08/23 06:44:43;;;;;;;20.90;13.97;;;18.40;99.30;;;;;;5027269;28;20284;-71
2023/08/23 06:47:09;;;;;;;20.83;14.53;;;18.60;99.50;;;;;;5026753;28;20387;-71
2023/08/23 06:49:35;;;;;;;19.30;12.80;;;18.80;99.40;;;;;;5008696;28;20078;-71
2023/08/23 06:52:01;;;;;;;17.83;13.20;;;19.00;99.00;;;;;;5029825;28;20037;-71
2023/08/23 06:54:27;;;;;;;20.53;13.17;;;19.20;98.80;;;;;;5023721;28;20121;-71
2023/08/23 06:56:53;;;;;;;19.80;12.90;;;19.30;98.20;;;;;;5025849;28;20079;-71
2023/08/23 06:59:18;;;;;;;18.17;12.17;;;19.30;97.80;;;;;;5022556;28;20075;-71
2023/08/23 07:01:45;;;;;;;18.50;12.40;;;19.30;97.80;;;;;;5023870;28;20060;-71
2023/08/23 07:04:11;;;;;;;17.90;13.00;;;19.40;97.80;;;;;;5013189;28;20665;-71
2023/08/23 07:06:37;;;;;;;15.97;11.73;;;19.50;97.80;;;;;;5008394;28;20037;-71
2023/08/23 07:09:03;;;;;;;16.47;11.77;;;19.50;97.50;;;;;;5014604;28;20048;-71
2023/08/23 07:11:29;;;;;;;19.77;11.50;;;19.50;97.40;;;;;;5026575;28;20044;-71
2023/08/23 07:13:55;;;;;;;17.80;10.67;;;19.60;97.60;;;;;;5028655;28;20033;-71
2023/08/23 07:16:21;;;;;;;18.60;11.00;;;19.70;97.30;;;;;;5029562;28;20099;-71
2023/08/23 07:18:46;;;;;;;13.73;9.87;;;19.90;96.90;;;;;;5027285;28;20159;-72
2023/08/23 07:21:12;;;;;;;15.03;9.80;;;19.90;96.30;;;;;;5022918;28;20469;-72
2023/08/23 07:23:38;;;;;;;14.63;10.10;;;20.00;96.00;;;;;;5027134;28;20691;-72
2023/08/23 07:26:04;;;;;;;20.90;11.20;;;20.10;96.00;;;;;;5026663;28;20043;-71
2023/08/23 07:28:30;;;;;;;20.07;10.50;;;20.30;96.00;;;;;;5029442;28;20052;-71
2023/08/23 07:30:58;;;;;;;20.30;11.77;;;20.40;95.30;;;;;;5028930;28;20041;-71
2023/08/23 07:33:25;;;;;;;13.73;9.33;;;20.50;95.10;;;;;;5030280;28;20041;-71
2023/08/23 07:35:56;;;;;;;15.93;10.20;;;20.70;94.30;;;;;;5030569;28;20037;-71
2023/08/23 07:38:22;;;;;;;19.13;9.30;;;20.70;93.00;;;;;;5013712;28;20432;-71
2023/08/23 07:40:47;;;;;;;16.87;9.80;;;20.70;93.10;;;;;;5030604;28;20060;-71
2023/08/23 07:43:13;;;;;;;14.47;8.47;;;20.80;92.70;;;;;;5010255;28;20041;-71
2023/08/23 07:45:38;;;;;;;14.90;9.27;;;20.80;92.70;;;;;;5027257;28;20055;-71
2023/08/23 07:48:05;;;;;;;17.03;8.87;;;20.90;92.20;;;;;;5025178;28;20033;-71
2023/08/23 07:50:30;;;;;;;12.80;8.73;;;21.00;91.80;;;;;;5030199;28;20229;-71
2023/08/23 07:52:56;;;;;;;14.30;8.60;;;21.00;91.00;;;;;;5022858;28;20040;-71
2023/08/23 07:55:22;;;;;;;13.60;7.80;;;21.10;91.10;;;;;;5026981;28;20127;-71
2023/08/23 07:57:48;;;;;;;12.70;7.27;;;21.10;89.90;;;;;;5025640;28;20148;-71
2023/08/23 08:00:14;;;;;;;14.30;8.37;;;21.20;90.40;;;;;;5009677;28;20159;-71
2023/08/23 08:02:40;;;;;;;17.27;8.60;;;21.20;88.30;;;;;;5030928;28;20041;-72
2023/08/23 08:05:07;;;;;;;16.93;8.03;;;21.10;88.40;;;;;;5021855;28;20139;-71
2023/08/23 08:07:33;;;;;;;13.80;7.03;;;21.10;88.80;;;;;;5020611;28;20357;-71
2023/08/23 08:09:59;;;;;;;10.83;6.30;;;21.20;88.50;;;;;;5026703;28;20033;-71
2023/08/23 08:12:24;;;;;;;11.93;7.03;;;21.20;88.80;;;;;;5026338;28;20080;-71
2023/08/23 08:14:50;;;;;;;9.87;6.27;;;21.40;88.80;;;;;;5026803;28;20036;-71
2023/08/23 08:17:16;;;;;;;8.90;5.80;;;21.50;88.40;;;;;;5023800;28;20091;-71
2023/08/23 08:19:41;;;;;;;10.67;5.70;;;21.60;87.90;;;;;;5028342;28;20457;-71
2023/08/23 08:22:07;;;;;;;12.90;8.47;;;21.70;87.90;;;;;;5012691;28;20037;-71
2023/08/23 08:24:33;;;;;;;10.17;7.20;;;21.90;87.20;;;;;;5025270;28;20045;-71
2023/08/23 08:26:59;;;;;;;11.23;7.03;;;22.00;86.80;;;;;;5028267;28;20497;-71
2023/08/23 08:29:24;;;;;;;13.47;7.27;;;22.10;86.20;;;;;;5026232;28;20041;-71
2023/08/23 08:31:50;;;;;;;11.03;7.10;;;22.20;84.90;;;;;;5028804;28;20052;-71
2023/08/23 08:34:17;;;;;;;12.50;6.90;;;22.30;83.40;;;;;;5024371;28;20670;-71
2023/08/23 08:36:44;;;;;;;10.57;6.53;;;22.30;83.30;;;;;;5024853;28;20033;-71
2023/08/23 08:39:09;;;;;;;9.37;6.00;;;22.30;83.40;;;;;;5009490;28;20129;-72
2023/08/23 08:41:35;;;;;;;9.90;6.00;;;22.30;82.20;;;;;;5028083;28;20468;-72
2023/08/23 08:44:02;;;;;;;14.40;8.03;;;22.30;80.80;;;;;;5009910;28;20083;-72
2023/08/23 08:46:28;;;;;;;12.67;7.70;;;22.30;81.10;;;;;;5024971;28;20123;-72
2023/08/23 08:48:54;;;;;;;10.13;7.53;;;22.50;82.10;;;;;;5023755;28;20679;-72
2023/08/23 08:51:21;;;;;;;11.87;7.33;;;22.60;82.40;;;;;;5022918;28;20040;-72
2023/08/23 08:53:51;;;;;;;9.00;5.63;;;22.80;81.90;;;;;;5027572;28;20049;-72
2023/08/23 08:56:19;;;;;;;13.00;7.17;;;22.90;81.70;;;;;;5014888;28;20052;-72
2023/08/23 08:58:46;;;;;;;9.83;5.10;;;23.00;81.50;;;;;;5018766;28;20037;-72
2023/08/23 09:01:14;;;;;;;8.77;4.70;;;23.10;81.00;;;;;;5000943;28;20045;-71
2023/08/23 09:03:41;;;;;;;9.10;4.90;;;23.10;80.10;;;;;;5018495;28;20041;-72
2023/08/23 09:06:07;;;;;;;9.73;4.87;;;23.10;80.40;;;;;;5021175;28;20484;-72
2023/08/23 09:08:33;;;;;;;12.97;5.20;;;23.20;79.90;;;;;;5017300;28;20048;-72
2023/08/23 09:10:59;;;;;;;9.40;4.77;;;23.20;78.40;;;;;;5013618;28;20700;-72
2023/08/23 09:13:25;;;;;;;9.57;4.93;;;23.30;79.30;;;;;;5013515;28;20029;-72
2023/08/23 09:15:51;;;;;;;8.67;4.13;;;23.30;77.80;;;;;;5014517;28;20072;-72
2023/08/23 09:18:20;;;;;;;6.70;4.43;;;23.50;78.60;;;;;;5014755;28;20099;-72
2023/08/23 09:20:46;;;;;;;7.87;4.40;;;23.60;78.00;;;;;;5019148;28;20059;-71
2023/08/23 09:23:12;;;;;;;7.57;3.90;;;23.80;77.70;;;;;;5010201;28;20049;-72
2023/08/23 09:25:39;;;;;;;12.20;6.53;;;24.00;76.90;;;;;;5024968;28;20823;-72
2023/08/23 09:28:04;;;;;;;9.43;4.03;;;24.20;74.90;;;;;;5020303;28;20037;-72
2023/08/23 09:30:32;;;;;;;8.37;4.30;;;24.40;74.30;;;;;;5021056;28;21493;-72
2023/08/23 09:32:58;;;;;;;10.87;4.60;;;24.50;74.40;;;;;;5010606;28;20117;-72
2023/08/23 09:35:23;;;;;;;6.80;3.57;;;24.60;74.10;;;;;;5011009;28;20507;-72
2023/08/23 09:37:49;;;;;;;6.73;4.50;;;24.80;73.20;;;;;;5027606;28;20053;-72
2023/08/23 09:40:22;;;;;;;9.23;4.03;;;24.90;72.30;;;;;;5019825;28;20042;-72
2023/08/23 09:42:49;;;;;;;5.73;3.50;;;25.00;71.70;;;;;;5019792;28;20033;-72
2023/08/23 09:45:21;;;;;;;7.07;4.13;;;25.20;71.70;;;;;;5030337;28;20033;-72
2023/08/23 09:47:55;;;;;;;5.37;3.57;;;25.30;69.70;;;;;;5025464;28;20045;-72
2023/08/23 09:50:22;;;;;;;7.78;4.20;;;25.30;68.60;;;;;;5022572;28;20077;-72
2023/08/23 09:52:57;;;;;;;6.80;4.20;;;25.40;70.00;;;;;;5016552;28;20037;-72
2023/08/23 09:55:24;;;;;;;8.90;3.80;;;25.50;70.00;;;;;;5019583;28;20064;-71
2023/08/23 09:57:52;;;;;;;8.23;3.20;;;25.70;69.00;;;;;;5019451;28;20053;-72
2023/08/23 10:00:21;;;;;;;7.63;3.03;;;25.90;69.40;;;;;;5022748;28;20055;-72
2023/08/23 10:02:47;;;;;;;6.80;4.17;;;26.00;65.50;;;;;;5026548;28;20072;-72
2023/08/23 10:05:13;;;;;;;8.33;4.00;;;26.00;65.80;;;;;;5016092;28;20045;-72
2023/08/23 10:07:42;;;;;;;5.87;3.00;;;26.00;67.00;;;;;;5014755;28;20052;-72
2023/08/23 10:10:09;;;;;;;7.30;2.70;;;26.10;67.50;;;;;;5021597;28;20037;-72
2023/08/23 10:12:39;;;;;;;5.07;2.47;;;26.00;64.60;;;;;;5029493;28;20452;-72
2023/08/23 10:15:06;;;;;;;4.20;1.30;;;25.90;63.30;;;;;;5029388;28;20040;-72
2023/08/23 10:17:33;;;;;;;5.17;1.23;;;25.90;63.50;;;;;;5025596;28;20050;-72
2023/08/23 10:20:07;;;;;;;6.27;1.87;;;25.70;60.80;;;;;;5014508;28;20041;-72
2023/08/23 10:22:33;;;;;;;5.90;1.70;;;25.40;61.70;;;;;;5029901;28;20126;-71
2023/08/23 10:24:59;;;;;;;4.30;1.77;;;25.00;63.00;;;;;;5031409;28;20049;-72
2023/08/23 10:27:25;;;;;;;5.70;2.33;;;24.60;63.70;;;;;;5025018;28;20037;-72
2023/08/23 10:29:51;;;;;;;6.47;2.20;;;24.30;65.20;;;;;;5028274;28;20059;-71
2023/08/23 10:32:17;;;;;;;3.37;1.30;;;24.00;65.80;;;;;;5034502;28;20102;-72
2023/08/23 10:34:43;;;;;;;3.47;1.33;;;23.80;65.10;;;;;;5032718;28;20048;-72
2023/08/23 10:37:17;;;;;;;3.33;1.40;;;23.70;66.00;;;;;;5015111;28;20045;-71
2023/08/23 10:39:53;;;;;;;10.27;2.00;;;23.60;66.70;;;;;;5029822;28;20040;-71
2023/08/23 10:42:20;;;;;;;5.40;1.93;;;23.70;67.00;;;;;;5028789;28;20275;-71
2023/08/23 10:44:58;;;;;;;4.00;1.77;;;23.70;65.00;;;;;;5014694;28;21393;-71
2023/08/23 10:47:23;;;;;;;7.50;2.03;;;23.50;64.80;;;;;;5029685;28;20045;-71
2023/08/23 10:49:50;;;;;;;5.77;1.90;;;23.40;66.10;;;;;;5019932;28;20746;-71
2023/08/23 10:52:16;;;;;;;5.57;1.20;;;23.40;66.10;;;;;;5024017;28;20048;-71
2023/08/23 10:54:42;;;;;;;4.70;1.00;;;23.50;65.90;;;;;;5037145;28;20037;-71
2023/08/23 10:57:08;;;;;;;6.83;1.50;;;23.70;66.30;;;;;;5033311;28;20040;-71
2023/08/23 10:59:34;;;;;;;3.37;1.20;;;23.90;64.50;;;;;;5035220;28;20163;-71
2023/08/23 11:02:00;;;;;;;4.07;1.00;;;24.10;63.80;;;;;;5029002;28;20120;-71
2023/08/23 11:04:26;;;;;;;1.83;1.10;;;24.40;63.30;;;;;;5033102;28;20037;-71
2023/08/23 11:06:52;;;;;;;3.87;1.23;;;24.70;61.90;;;;;;5029707;28;20235;-71
2023/08/23 11:09:18;;;;;;;5.93;1.77;;;24.90;60.40;;;;;;5028770;28;20055;-71
2023/08/23 11:11:44;;;;;;;3.47;1.17;;;25.20;61.60;;;;;;5029599;28;20033;-72
2023/08/23 11:14:10;;;;;;;3.67;1.53;;;25.50;62.60;;;;;;5034367;28;20123;-71
2023/08/23 11:16:38;;;;;;;3.50;0.90;;;25.60;60.70;;;;;;5036380;28;20033;-71
2023/08/23 11:19:05;;;;;;;3.80;0.70;;;25.80;61.00;;;;;;5015594;28;20045;-72
2023/08/23 11:21:35;;;;;;;2.47;0.87;;;26.00;59.10;;;;;;5037213;28;20664;-72
2023/08/23 11:24:05;;;;;;;2.30;1.00;;;26.20;56.50;;;;;;5042068;28;20570;-71
2023/08/23 11:26:35;;;;;;;3.53;1.10;;;26.40;57.10;;;;;;5029758;28;20057;-71
2023/08/23 11:29:02;;;;;;;3.37;1.03;;;26.40;55.30;;;;;;5030363;28;20069;-71
2023/08/23 11:31:29;;;;;;;2.33;0.80;;;26.40;56.80;;;;;;5010096;28;20064;-71
2023/08/23 11:33:57;;;;;;;4.00;1.07;;;26.60;56.20;;;;;;5027335;28;20045;-71
2023/08/23 11:36:23;;;;;;;2.80;1.00;;;26.70;57.30;;;;;;5026694;28;20045;-71
2023/08/23 11:38:49;;;;;;;4.53;1.00;;;26.90;56.80;;;;;;5028522;28;20421;-71
2023/08/23 11:41:25;;;;;;;2.27;0.67;;;26.90;54.40;;;;;;5022055;28;20524;-71
2023/08/23 11:43:53;;;;;;;2.47;0.50;;;26.60;55.40;;;;;;5022913;28;20064;-71
2023/08/23 11:46:19;;;;;;;2.27;0.93;;;26.40;56.30;;;;;;5027937;28;20127;-69
2023/08/23 11:48:45;;;;;;;4.07;1.40;;;26.20;56.50;;;;;;5030315;28;20129;-68
2023/08/23 11:51:10;;;;;;;2.63;1.93;;;26.10;55.80;;;;;;5030426;28;20084;-68
2023/08/23 11:53:36;;;;;;;2.97;1.30;;;25.90;57.00;;;;;;5029414;28;20544;-68
2023/08/23 11:56:06;;;;;;;4.77;1.47;;;25.80;57.60;;;;;;5031439;28;20037;-68
2023/08/23 11:58:31;;;;;;;4.13;1.83;;;25.80;58.20;;;;;;5030913;28;20492;-68
2023/08/23 12:00:58;;;;;;;4.23;1.10;;;25.70;58.20;;;;;;5029472;28;20044;-68
2023/08/23 12:03:23;;;;;;;1.93;1.00;;;25.60;57.40;;;;;;5025478;28;20098;-68
2023/08/23 12:05:49;;;;;;;4.57;1.50;;;25.50;58.20;;;;;;5009155;28;20657;-68
2023/08/23 12:08:15;;;;;;;3.93;1.77;;;25.50;58.40;;;;;;5024140;28;20068;-68
2023/08/23 12:10:41;;;;;;;4.17;1.40;;;25.60;58.00;;;;;;5031074;28;20034;-68
2023/08/23 12:13:06;;;;;;;4.00;1.93;;;25.80;57.20;;;;;;5015952;28;20041;-68
2023/08/23 12:15:32;;;;;;;4.57;1.70;;;26.00;57.60;;;;;;5032515;28;20033;-68
2023/08/23 12:17:58;;;;;;;5.30;2.40;;;26.10;57.40;;;;;;5031906;28;20651;-68
2023/08/23 12:20:24;;;;;;;6.30;2.20;;;26.40;57.70;;;;;;5019377;28;20041;-68
2023/08/23 12:22:50;;;;;;;3.77;1.90;;;26.60;56.60;;;;;;5024591;28;20408;-68
2023/08/23 12:25:16;;;;;;;6.60;2.13;;;26.60;56.60;;;;;;5026983;28;20033;-68
2023/08/23 12:27:42;;;;;;;6.67;3.00;;;26.70;57.20;;;;;;5031267;28;20044;-68
2023/08/23 12:30:09;;;;;;;5.73;2.67;;;26.70;55.90;;;;;;5031379;28;20060;-68
2023/08/23 12:32:35;;;;;;;7.43;3.10;;;26.60;56.60;;;;;;5014800;28;20140;-68